Time;durP1;ratioP1;P1;durP2;ratioP2;P2;SDS_P1;SDS_P2;PMS_P1;PMS_P2;Temp;Humidity;BMP_temperature;BMP_pressure;BME280_temperature;BME280_humidity;BME280_pressure;Samples;Min_cycle;Max_cycle;Signal;HPM_P1;HPM_P2
2020/12/26 00:02:06;;;;;;;1.60;0.93;;;6.30;99.90;;;;;;4976803;28;20211;-96
2020/12/26 00:04:40;;;;;;;2.27;1.00;;;6.20;99.90;;;;;;4977301;28;20848;-96
2020/12/26 00:07:12;;;;;;;5.30;0.90;;;6.20;99.90;;;;;;4967810;28;20209;-95
2020/12/26 00:09:42;;;;;;;2.10;1.10;;;6.20;99.90;;;;;;4954639;29;20220;-96
2020/12/26 00:12:13;;;;;;;3.77;1.10;;;6.20;99.90;;;;;;4954015;29;20241;-96
2020/12/26 00:14:46;;;;;;;1.33;0.70;;;6.10;99.90;;;;;;4944301;29;20212;-95
2020/12/26 00:17:17;;;;;;;2.27;0.70;;;6.00;99.90;;;;;;4947324;29;20209;-94
2020/12/26 00:19:50;;;;;;;3.10;0.97;;;6.00;99.90;;;;;;4943169;28;20193;-96
2020/12/26 00:22:21;;;;;;;1.90;0.90;;;5.90;99.90;;;;;;4952673;28;20261;-96
2020/12/26 00:24:52;;;;;;;2.77;1.23;;;5.90;99.90;;;;;;4955842;29;20189;-95
2020/12/26 00:27:24;;;;;;;1.93;1.10;;;5.80;99.90;;;;;;4954407;29;20631;-96
2020/12/26 00:29:58;;;;;;;1.60;0.90;;;5.90;99.90;;;;;;4948234;29;20687;-96
2020/12/26 00:32:30;;;;;;;2.43;1.23;;;5.80;99.90;;;;;;4929472;29;20295;-94
2020/12/26 00:35:05;;;;;;;1.20;0.90;;;5.80;99.90;;;;;;4947980;28;20676;-94
2020/12/26 00:37:36;;;;;;;1.57;0.83;;;5.70;99.90;;;;;;4941775;28;20211;-95
2020/12/26 00:40:06;;;;;;;2.73;0.80;;;5.60;99.90;;;;;;4926684;29;20273;-94
2020/12/26 00:42:39;;;;;;;1.60;1.00;;;5.60;99.90;;;;;;4941198;29;20231;-95
2020/12/26 00:45:29;;;;;;;1.20;1.00;;;5.60;99.90;;;;;;4945181;28;20276;-96
2020/12/26 00:48:02;;;;;;;1.53;0.93;;;5.50;99.90;;;;;;4954810;28;20244;-95
2020/12/26 00:50:34;;;;;;;3.90;1.03;;;5.50;99.90;;;;;;4942592;29;20251;-95
2020/12/26 00:53:05;;;;;;;1.17;0.70;;;5.40;99.90;;;;;;4943509;29;20208;-95
2020/12/26 00:55:38;;;;;;;2.80;0.87;;;5.40;99.90;;;;;;4933132;28;20219;-96
2020/12/26 00:58:09;;;;;;;1.30;0.80;;;5.40;99.90;;;;;;4924510;29;20276;-96
2020/12/26 01:00:39;;;;;;;1.30;0.90;;;5.40;99.90;;;;;;4951757;29;20255;-95
2020/12/26 01:03:11;;;;;;;1.23;0.90;;;5.40;99.90;;;;;;4943199;29;20244;-96
2020/12/26 01:05:44;;;;;;;3.50;1.07;;;5.40;99.90;;;;;;4964056;28;20198;-95
2020/12/26 01:08:15;;;;;;;0.87;0.77;;;5.40;99.90;;;;;;4941930;28;20287;-96
2020/12/26 01:10:49;;;;;;;0.77;0.70;;;5.40;99.90;;;;;;4934759;29;20221;-92
2020/12/26 01:13:23;;;;;;;1.23;0.67;;;5.30;99.90;;;;;;4940734;29;20217;-93
2020/12/26 01:15:54;;;;;;;0.63;0.60;;;5.30;99.90;;;;;;4948854;28;20201;-92
2020/12/26 01:18:28;;;;;;;0.93;0.80;;;5.40;99.90;;;;;;4935472;29;20220;-93
2020/12/26 01:21:03;;;;;;;1.63;0.70;;;5.30;99.90;;;;;;4943555;29;20258;-92
2020/12/26 01:23:35;;;;;;;0.93;0.77;;;5.30;99.90;;;;;;4954723;28;20960;-92
2020/12/26 01:26:06;;;;;;;0.80;0.80;;;5.30;99.90;;;;;;4930099;29;20588;-92
2020/12/26 01:28:37;;;;;;;1.10;0.80;;;5.20;99.90;;;;;;4933947;29;20263;-91
2020/12/26 01:31:08;;;;;;;1.30;0.80;;;5.30;99.90;;;;;;4957377;28;20490;-91
2020/12/26 01:33:40;;;;;;;1.60;0.97;;;5.30;99.90;;;;;;4942518;28;20216;-92
2020/12/26 01:36:33;;;;;;;1.03;0.80;;;5.30;99.90;;;;;;4927231;29;20209;-94
2020/12/26 01:39:09;;;;;;;1.23;0.70;;;5.20;99.90;;;;;;4593642;29;10000754;-93
2020/12/26 01:41:40;;;;;;;4.30;0.90;;;5.20;99.90;;;;;;4948378;28;20283;-92
2020/12/26 01:44:10;;;;;;;0.60;0.50;;;5.20;99.90;;;;;;4923675;29;20675;-92
2020/12/26 01:46:41;;;;;;;1.90;0.70;;;5.20;99.90;;;;;;4931458;28;20276;-95
2020/12/26 01:49:19;;;;;;;0.73;0.70;;;5.20;99.90;;;;;;4926958;29;20209;-95
2020/12/26 01:57:35;;;;;;;1.07;0.73;;;5.10;99.90;;;;;;5413360;23;20250;-96
2020/12/26 02:00:07;;;;;;;1.67;0.87;;;5.20;99.90;;;;;;4965937;28;20248;-96
2020/12/26 02:02:45;;;;;;;0.97;0.80;;;5.20;99.90;;;;;;5475206;23;20525;-96
2020/12/26 02:05:30;;;;;;;1.97;0.83;;;5.20;99.90;;;;;;4955730;29;20226;-93
2020/12/26 02:13:29;;;;;;;1.30;1.00;;;5.10;99.90;;;;;;4967475;28;20266;-96
2020/12/26 02:16:08;;;;;;;1.17;1.00;;;5.10;99.90;;;;;;4969204;28;20208;-93
2020/12/26 02:21:30;;;;;;;1.03;0.77;;;5.20;99.90;;;;;;4949922;29;20292;-95
2020/12/26 02:24:24;;;;;;;1.47;1.03;;;5.20;99.90;;;;;;4948958;29;20205;-95
2020/12/26 02:27:17;;;;;;;1.70;1.00;;;5.20;99.90;;;;;;4945469;29;20740;-94
2020/12/26 02:29:59;;;;;;;0.83;0.63;;;5.20;99.90;;;;;;4949453;29;20225;-94
2020/12/26 02:32:43;;;;;;;1.97;0.90;;;5.20;99.90;;;;;;4946373;29;20211;-93
2020/12/26 02:35:27;;;;;;;0.57;0.40;;;5.20;99.90;;;;;;4946383;29;20204;-93
2020/12/26 02:56:56;;;;;;;1.53;0.77;;;5.10;99.90;;;;;;4977067;28;20250;-95
2020/12/26 02:59:26;;;;;;;1.00;0.60;;;5.10;99.90;;;;;;4971554;28;20210;-94
2020/12/26 03:01:57;;;;;;;1.20;0.93;;;5.10;99.90;;;;;;4965783;29;20195;-95
2020/12/26 03:04:27;;;;;;;1.90;1.20;;;5.10;99.90;;;;;;4963964;29;20306;-93
2020/12/26 03:06:58;;;;;;;1.63;0.80;;;5.10;99.90;;;;;;4964984;28;20234;-94
2020/12/26 03:09:29;;;;;;;1.50;0.80;;;5.10;99.90;;;;;;4965502;28;20251;-95
2020/12/26 03:12:01;;;;;;;1.00;0.80;;;5.10;99.90;;;;;;4960355;29;20204;-96
2020/12/26 03:14:33;;;;;;;1.90;0.60;;;5.10;99.90;;;;;;4966102;28;20839;-95
2020/12/26 03:17:04;;;;;;;0.97;0.50;;;5.10;99.90;;;;;;4968270;28;20211;-96
2020/12/26 03:19:35;;;;;;;0.70;0.60;;;5.10;99.90;;;;;;4967566;28;20203;-96
2020/12/26 03:22:05;;;;;;;0.93;0.63;;;5.10;99.90;;;;;;4963611;28;20230;-93
2020/12/26 03:24:37;;;;;;;1.27;0.70;;;5.10;99.90;;;;;;4964538;29;20196;-94
2020/12/26 03:27:10;;;;;;;0.90;0.60;;;5.10;99.90;;;;;;4966042;28;20227;-93
2020/12/26 03:29:44;;;;;;;0.93;0.50;;;5.10;99.90;;;;;;4967375;28;20215;-94
2020/12/26 03:32:16;;;;;;;0.60;0.60;;;5.10;99.90;;;;;;4963698;28;20213;-95
2020/12/26 03:34:47;;;;;;;2.20;0.70;;;5.10;99.90;;;;;;4959921;28;20288;-95
2020/12/26 03:37:17;;;;;;;0.77;0.67;;;5.10;99.90;;;;;;4956911;28;20234;-95
2020/12/26 03:39:48;;;;;;;2.17;0.70;;;5.10;99.90;;;;;;4959496;28;20215;-94
2020/12/26 03:42:20;;;;;;;0.70;0.57;;;5.10;99.90;;;;;;4973169;28;20200;-93
2020/12/26 03:44:52;;;;;;;1.10;0.57;;;5.10;99.90;;;;;;4976439;28;20203;-93
2020/12/26 03:47:24;;;;;;;0.70;0.70;;;5.10;99.90;;;;;;4966033;28;20227;-95
2020/12/26 03:50:06;;;;;;;0.60;0.60;;;5.10;99.90;;;;;;4969699;28;20551;-96
2020/12/26 03:52:38;;;;;;;0.97;0.80;;;5.10;99.90;;;;;;5216642;23;20219;-93
2020/12/26 03:55:11;;;;;;;0.60;0.60;;;5.10;99.90;;;;;;4971068;28;20276;-95
2020/12/26 03:57:44;;;;;;;1.10;0.80;;;5.20;99.90;;;;;;4972131;28;20219;-96
2020/12/26 04:00:16;;;;;;;1.00;0.73;;;5.20;99.90;;;;;;4980966;28;20200;-93
2020/12/26 04:02:47;;;;;;;1.60;1.00;;;5.10;99.90;;;;;;4970124;28;20204;-94
2020/12/26 04:05:18;;;;;;;2.23;0.90;;;5.20;99.90;;;;;;4969306;28;20214;-93
2020/12/26 04:07:51;;;;;;;1.37;1.00;;;5.10;99.90;;;;;;4970444;28;20267;-94
2020/12/26 04:10:22;;;;;;;0.80;0.80;;;5.20;99.90;;;;;;4973180;28;20212;-94
2020/12/26 04:12:55;;;;;;;1.43;1.20;;;5.10;99.90;;;;;;4960177;28;20209;-94
2020/12/26 04:15:26;;;;;;;2.87;1.20;;;5.20;99.90;;;;;;4969543;28;20208;-94
2020/12/26 04:17:57;;;;;;;1.00;0.90;;;5.10;99.90;;;;;;4971440;28;20215;-93
2020/12/26 04:20:28;;;;;;;1.03;0.80;;;5.10;99.90;;;;;;4970055;28;20192;-92
2020/12/26 04:27:08;;;;;;;1.30;0.60;;;5.10;99.90;;;;;;4915644;29;20201;-95
2020/12/26 04:35:32;;;;;;;1.63;1.40;;;5.20;99.90;;;;;;4970664;28;20209;-92
2020/12/26 04:38:03;;;;;;;1.97;1.57;;;5.20;99.90;;;;;;4968426;28;20195;-93
2020/12/26 04:40:35;;;;;;;4.10;2.13;;;5.20;99.90;;;;;;4970223;28;20188;-92
2020/12/26 04:43:08;;;;;;;2.17;1.97;;;5.20;99.90;;;;;;4975428;28;20291;-94
2020/12/26 04:45:41;;;;;;;1.37;1.13;;;5.20;99.90;;;;;;4976152;28;20208;-96
2020/12/26 04:48:19;;;;;;;1.40;1.20;;;5.20;99.90;;;;;;4975423;29;20598;-93
2020/12/26 04:50:59;;;;;;;1.50;0.93;;;5.20;99.90;;;;;;4978528;28;20213;-95
2020/12/26 04:53:46;;;;;;;1.33;1.03;;;5.30;99.90;;;;;;5215242;23;20244;-94
2020/12/26 04:56:22;;;;;;;1.33;1.10;;;5.30;99.90;;;;;;4946802;28;20248;-94
2020/12/26 05:07:17;;;;;;;1.30;1.00;;;5.30;99.90;;;;;;4619593;28;10002093;-94
2020/12/26 05:09:50;;;;;;;2.60;1.10;;;5.40;99.90;;;;;;4986970;23;20216;-95
2020/12/26 05:29:11;;;;;;;3.90;1.07;;;5.40;99.90;;;;;;4954233;28;20239;-96
2020/12/26 05:41:41;;;;;;;1.40;1.07;;;5.50;99.90;;;;;;4951176;28;20200;-96
2020/12/26 05:46:59;;;;;;;1.73;1.20;;;5.50;99.90;;;;;;4977646;28;20226;-96
2020/12/26 05:52:08;;;;;;;1.73;1.00;;;5.60;99.90;;;;;;4975890;28;20503;-96
2020/12/26 05:57:13;;;;;;;1.60;1.30;;;5.50;99.90;;;;;;4968967;28;20627;-93
2020/12/26 05:59:48;;;;;;;2.30;1.10;;;5.60;99.90;;;;;;4962624;28;20215;-96
2020/12/26 06:05:02;;;;;;;1.53;1.20;;;5.60;99.90;;;;;;5487419;23;20255;-95
2020/12/26 06:07:44;;;;;;;2.00;1.20;;;5.50;99.90;;;;;;4952608;29;20263;-95
2020/12/26 06:10:16;;;;;;;2.00;1.40;;;5.50;99.90;;;;;;4957915;29;20208;-96
2020/12/26 06:18:59;;;;;;;2.93;1.30;;;5.60;99.90;;;;;;5487691;23;20302;-94
2020/12/26 06:21:29;;;;;;;2.07;1.10;;;5.60;99.90;;;;;;4966320;28;20237;-96
2020/12/26 06:26:48;;;;;;;1.13;0.73;;;5.50;99.90;;;;;;4961703;28;20208;-95
2020/12/26 06:29:31;;;;;;;1.23;0.67;;;5.50;99.90;;;;;;4964379;28;20257;-96
2020/12/26 06:32:04;;;;;;;1.13;0.70;;;5.50;99.90;;;;;;4974616;28;20215;-96
2020/12/26 06:34:40;;;;;;;2.27;0.80;;;5.50;99.90;;;;;;4962523;28;20240;-96
2020/12/26 06:39:47;;;;;;;1.43;1.13;;;5.50;99.90;;;;;;5171774;23;20299;-96
2020/12/26 06:42:23;;;;;;;2.00;1.00;;;5.50;99.90;;;;;;5014343;23;20321;-96
2020/12/26 06:44:55;;;;;;;1.30;0.90;;;5.50;99.90;;;;;;4955432;29;20199;-93
2020/12/26 06:47:39;;;;;;;0.97;0.70;;;5.50;99.90;;;;;;4953649;29;20259;-93
2020/12/26 06:50:21;;;;;;;0.67;0.63;;;5.50;99.90;;;;;;4951588;29;20335;-93
2020/12/26 06:52:53;;;;;;;1.57;0.80;;;5.30;99.90;;;;;;4956687;28;20224;-94
2020/12/26 06:55:47;;;;;;;1.43;0.90;;;5.30;99.90;;;;;;4951441;28;20208;-95
2020/12/26 06:58:55;;;;;;;2.13;1.10;;;5.40;99.90;;;;;;4950170;29;20208;-94
2020/12/26 07:01:47;;;;;;;1.77;0.90;;;5.40;99.90;;;;;;4951160;29;20227;-90
2020/12/26 07:04:21;;;;;;;1.20;0.70;;;5.30;99.90;;;;;;4947243;29;20219;-96
2020/12/26 07:06:54;;;;;;;1.40;0.87;;;5.30;99.90;;;;;;4948186;29;20219;-94
2020/12/26 07:09:50;;;;;;;2.13;0.80;;;5.30;99.90;;;;;;4947623;29;20232;-95
2020/12/26 07:12:42;;;;;;;0.97;0.80;;;5.20;99.90;;;;;;4951703;28;20200;-96
2020/12/26 07:15:33;;;;;;;1.47;0.80;;;5.30;99.90;;;;;;4953630;29;20231;-96
2020/12/26 07:18:26;;;;;;;0.70;0.70;;;5.30;99.90;;;;;;4948189;29;20280;-95
2020/12/26 07:21:00;;;;;;;0.83;0.60;;;5.30;99.90;;;;;;4945047;29;20196;-95
2020/12/26 07:23:51;;;;;;;1.00;0.57;;;5.30;99.90;;;;;;4943173;29;20204;-94
2020/12/26 07:26:25;;;;;;;1.60;0.70;;;5.30;99.90;;;;;;4948696;29;20205;-96
2020/12/26 07:29:02;;;;;;;1.07;0.90;;;5.30;99.90;;;;;;4949350;29;20242;-94
2020/12/26 07:31:48;;;;;;;1.00;0.80;;;5.30;99.90;;;;;;4942013;29;20216;-95
2020/12/26 07:34:40;;;;;;;0.70;0.60;;;5.30;99.90;;;;;;4945152;29;20235;-95
2020/12/26 07:37:13;;;;;;;2.23;0.90;;;5.20;99.90;;;;;;4949567;29;20212;-94
2020/12/26 07:39:46;;;;;;;0.57;0.57;;;5.20;99.90;;;;;;4951904;29;20211;-96
2020/12/26 07:42:18;;;;;;;1.17;0.93;;;5.10;99.90;;;;;;4952881;29;20231;-96
2020/12/26 07:44:50;;;;;;;1.30;0.73;;;5.00;99.90;;;;;;4953776;28;20213;-96
2020/12/26 07:47:21;;;;;;;1.57;0.80;;;4.90;99.90;;;;;;4954587;29;20204;-96
2020/12/26 07:50:05;;;;;;;1.87;0.87;;;4.90;99.90;;;;;;4953682;29;20283;-95
2020/12/26 07:52:35;;;;;;;0.77;0.60;;;4.80;99.90;;;;;;4953678;28;20223;-94
2020/12/26 07:55:07;;;;;;;0.90;0.60;;;4.70;99.90;;;;;;4954204;29;20498;-94
2020/12/26 07:57:38;;;;;;;0.60;0.60;;;4.70;99.90;;;;;;4951202;29;20224;-94
2020/12/26 08:00:10;;;;;;;0.90;0.60;;;4.60;99.90;;;;;;4952641;29;20505;-94
2020/12/26 08:02:51;;;;;;;1.10;0.70;;;4.60;99.90;;;;;;4949594;29;20212;-94
2020/12/26 08:05:25;;;;;;;1.13;0.60;;;4.60;99.90;;;;;;4946612;29;20232;-95
2020/12/26 08:07:57;;;;;;;0.83;0.70;;;4.50;99.90;;;;;;4945981;28;20220;-95
2020/12/26 08:10:28;;;;;;;0.60;0.60;;;4.50;99.90;;;;;;4949101;29;20188;-95
2020/12/26 08:13:07;;;;;;;1.30;0.73;;;4.40;99.90;;;;;;4952993;29;20219;-95
2020/12/26 08:15:38;;;;;;;1.00;0.90;;;4.40;99.90;;;;;;4951821;29;20216;-96
2020/12/26 08:18:09;;;;;;;1.53;1.10;;;4.50;99.90;;;;;;4953425;29;20205;-95
2020/12/26 08:20:41;;;;;;;1.50;1.40;;;4.50;99.90;;;;;;4952332;29;20662;-94
2020/12/26 08:23:14;;;;;;;1.30;1.20;;;4.60;99.90;;;;;;4951296;29;20215;-95
2020/12/26 08:25:45;;;;;;;1.60;1.20;;;4.60;99.90;;;;;;4946784;29;20200;-96
2020/12/26 08:28:19;;;;;;;2.33;1.57;;;4.60;99.90;;;;;;4951855;29;20228;-96
2020/12/26 08:30:56;;;;;;;1.70;1.23;;;4.60;99.90;;;;;;4955074;29;20228;-96
2020/12/26 08:33:31;;;;;;;3.53;1.23;;;4.60;99.90;;;;;;4954826;29;20204;-95
2020/12/26 08:36:10;;;;;;;1.90;1.53;;;4.60;99.90;;;;;;4952321;29;20760;-95
2020/12/26 08:38:46;;;;;;;3.27;1.40;;;4.60;99.90;;;;;;4952908;29;20211;-95
2020/12/26 08:41:21;;;;;;;1.73;1.00;;;4.60;99.90;;;;;;4949498;28;20212;-93
2020/12/26 08:43:52;;;;;;;1.00;0.90;;;4.70;99.90;;;;;;4947834;29;20227;-95
2020/12/26 08:46:26;;;;;;;1.30;1.00;;;4.60;99.90;;;;;;4951548;28;20209;-96
2020/12/26 08:48:57;;;;;;;1.67;0.90;;;4.70;99.90;;;;;;4950675;29;20270;-94
2020/12/26 08:51:30;;;;;;;1.07;0.83;;;4.70;99.90;;;;;;4950125;29;20212;-96
2020/12/26 08:54:01;;;;;;;1.30;0.80;;;4.70;99.90;;;;;;4948043;29;20650;-95
2020/12/26 08:56:36;;;;;;;0.77;0.77;;;4.80;99.90;;;;;;4952531;29;20321;-94
2020/12/26 08:59:07;;;;;;;2.87;0.90;;;4.80;99.90;;;;;;4949507;29;20204;-95
2020/12/26 09:01:38;;;;;;;1.27;0.70;;;4.80;99.90;;;;;;4949548;29;20209;-96
2020/12/26 09:04:17;;;;;;;0.97;0.70;;;4.70;99.90;;;;;;4950623;29;20212;-96
2020/12/26 09:06:51;;;;;;;2.07;0.90;;;4.70;99.90;;;;;;4950504;29;20212;-96
2020/12/26 09:09:22;;;;;;;2.17;0.80;;;4.60;99.90;;;;;;4953181;29;20255;-96
2020/12/26 09:12:03;;;;;;;0.70;0.63;;;4.60;99.90;;;;;;4952360;29;20212;-95
2020/12/26 09:14:35;;;;;;;0.80;0.70;;;4.60;99.90;;;;;;4953166;29;20568;-95
2020/12/26 09:17:08;;;;;;;1.50;0.70;;;4.60;99.90;;;;;;4941984;29;20286;-96
2020/12/26 09:19:45;;;;;;;1.23;0.93;;;4.60;99.90;;;;;;4950050;29;20295;-96
2020/12/26 09:22:16;;;;;;;0.73;0.73;;;4.60;99.90;;;;;;4950896;29;20275;-95
2020/12/26 09:24:47;;;;;;;0.50;0.50;;;4.60;99.90;;;;;;4951311;29;20306;-95
2020/12/26 09:27:22;;;;;;;0.73;0.50;;;4.50;99.90;;;;;;4951551;29;20275;-94
2020/12/26 09:30:05;;;;;;;0.73;0.43;;;4.40;99.90;;;;;;4951506;29;20228;-95
2020/12/26 09:32:36;;;;;;;0.57;0.57;;;4.40;99.90;;;;;;4943196;29;20212;-95
2020/12/26 09:35:19;;;;;;;0.60;0.53;;;4.40;99.90;;;;;;4950237;29;20232;-95
2020/12/26 09:37:55;;;;;;;1.07;0.77;;;4.30;99.90;;;;;;4949966;28;20219;-95
2020/12/26 09:40:28;;;;;;;0.70;0.70;;;4.30;99.90;;;;;;4950507;29;20240;-95
2020/12/26 09:43:00;;;;;;;1.53;0.80;;;4.20;99.90;;;;;;4935652;29;20242;-95
2020/12/26 09:45:35;;;;;;;1.70;1.03;;;4.20;99.90;;;;;;4951383;29;20256;-95
2020/12/26 09:48:05;;;;;;;1.60;1.20;;;4.30;99.90;;;;;;4950109;29;20243;-95
2020/12/26 09:50:36;;;;;;;2.23;1.10;;;4.50;99.90;;;;;;4948812;29;20224;-95
2020/12/26 09:53:08;;;;;;;1.87;1.40;;;4.60;99.90;;;;;;4950757;28;20244;-95
2020/12/26 09:55:39;;;;;;;1.63;1.20;;;4.70;99.90;;;;;;4949375;29;20204;-94
2020/12/26 09:58:10;;;;;;;1.30;1.00;;;4.70;99.90;;;;;;4948206;29;20208;-95
2020/12/26 10:00:41;;;;;;;1.97;0.80;;;4.90;99.90;;;;;;4948138;29;20224;-95
2020/12/26 10:03:12;;;;;;;0.40;0.40;;;4.90;99.90;;;;;;4946961;29;20204;-95
2020/12/26 10:05:44;;;;;;;1.13;0.63;;;5.00;99.90;;;;;;4949044;29;20229;-95
2020/12/26 10:08:16;;;;;;;0.47;0.40;;;5.20;99.90;;;;;;4949510;28;20248;-95
2020/12/26 10:10:47;;;;;;;0.60;0.50;;;5.30;99.90;;;;;;4942028;29;20520;-95
2020/12/26 10:13:18;;;;;;;1.17;0.90;;;5.40;99.90;;;;;;4945803;29;20239;-95
2020/12/26 10:15:48;;;;;;;0.70;0.60;;;5.40;99.90;;;;;;4948627;29;20216;-95
2020/12/26 10:18:19;;;;;;;0.30;0.30;;;5.50;99.90;;;;;;4949107;29;20209;-95
2020/12/26 10:20:50;;;;;;;1.27;0.83;;;5.50;99.90;;;;;;4944849;28;20249;-95
2020/12/26 10:23:23;;;;;;;1.33;0.50;;;5.50;99.90;;;;;;4929591;29;20251;-95
2020/12/26 10:25:53;;;;;;;0.53;0.50;;;5.60;99.90;;;;;;4947499;29;20204;-94
2020/12/26 10:28:24;;;;;;;1.10;0.70;;;5.70;99.90;;;;;;4946308;29;20280;-95
2020/12/26 10:30:54;;;;;;;1.33;0.70;;;5.80;99.90;;;;;;4949712;28;20228;-95
2020/12/26 10:33:25;;;;;;;0.80;0.60;;;5.80;99.90;;;;;;4948657;28;20216;-95
2020/12/26 10:35:55;;;;;;;1.07;0.50;;;5.90;99.90;;;;;;4948775;29;20204;-95
2020/12/26 10:38:29;;;;;;;0.70;0.40;;;6.00;99.90;;;;;;4948182;29;20220;-96
2020/12/26 10:41:00;;;;;;;1.03;0.33;;;6.30;99.90;;;;;;4949521;29;20256;-95
2020/12/26 10:43:31;;;;;;;0.53;0.30;;;6.60;99.90;;;;;;4948273;29;20279;-96
2020/12/26 10:46:03;;;;;;;0.30;0.30;;;6.90;99.90;;;;;;4947883;29;20200;-95
2020/12/26 10:48:34;;;;;;;0.40;0.30;;;7.00;99.90;;;;;;4949460;29;20224;-94
2020/12/26 10:51:08;;;;;;;0.67;0.30;;;7.10;99.90;;;;;;4947320;29;20212;-94
2020/12/26 10:53:41;;;;;;;0.40;0.30;;;7.10;99.90;;;;;;4946652;29;20227;-95
2020/12/26 10:56:13;;;;;;;0.30;0.30;;;7.00;99.90;;;;;;4947732;29;20243;-96
2020/12/26 10:58:43;;;;;;;0.53;0.20;;;7.10;99.90;;;;;;4948081;29;20620;-95
2020/12/26 11:01:14;;;;;;;0.97;0.20;;;7.10;99.90;;;;;;4947855;29;20204;-96
2020/12/26 11:03:45;;;;;;;0.20;0.20;;;7.10;99.90;;;;;;4945491;28;20208;-95
2020/12/26 11:06:16;;;;;;;0.20;0.20;;;7.10;99.90;;;;;;4947176;29;20207;-95
2020/12/26 11:08:48;;;;;;;0.40;0.30;;;7.00;99.90;;;;;;4947323;29;20224;-96
2020/12/26 11:11:19;;;;;;;1.30;0.30;;;7.10;99.90;;;;;;4951679;28;20278;-95
2020/12/26 11:13:50;;;;;;;1.63;0.50;;;7.00;99.90;;;;;;4950838;28;20213;-95
2020/12/26 11:16:20;;;;;;;1.70;0.40;;;7.00;99.90;;;;;;4951517;29;20204;-95
2020/12/26 11:18:50;;;;;;;1.23;0.40;;;7.10;99.90;;;;;;4947859;28;20288;-95
2020/12/26 11:21:22;;;;;;;0.70;0.40;;;7.10;99.90;;;;;;4948091;28;20393;-96
2020/12/26 11:23:54;;;;;;;0.60;0.30;;;7.30;99.90;;;;;;4950114;29;20212;-96
2020/12/26 11:26:29;;;;;;;2.30;0.40;;;7.30;99.90;;;;;;4951247;28;20227;-96
2020/12/26 11:29:00;;;;;;;3.93;0.50;;;7.20;99.90;;;;;;4952515;28;20237;-95
2020/12/26 11:31:31;;;;;;;0.37;0.20;;;7.10;99.90;;;;;;4954961;28;20196;-95
2020/12/26 11:34:04;;;;;;;0.83;0.47;;;7.20;99.90;;;;;;4955838;28;20211;-94
2020/12/26 11:36:35;;;;;;;1.03;0.40;;;7.30;99.90;;;;;;4957859;29;20192;-96
2020/12/26 11:39:08;;;;;;;0.60;0.33;;;7.40;99.90;;;;;;4957978;28;20284;-96
2020/12/26 11:41:39;;;;;;;0.73;0.30;;;7.40;99.90;;;;;;4938691;29;20192;-94
2020/12/26 11:44:09;;;;;;;1.30;0.50;;;7.30;99.90;;;;;;4942985;29;20211;-95
2020/12/26 11:46:40;;;;;;;1.80;0.40;;;7.40;99.90;;;;;;4953461;29;20196;-95
2020/12/26 11:49:11;;;;;;;1.20;0.40;;;7.30;99.90;;;;;;4962642;28;20216;-95
2020/12/26 11:51:43;;;;;;;0.97;0.30;;;7.40;99.90;;;;;;4948976;29;20598;-95
2020/12/26 11:54:16;;;;;;;0.80;0.37;;;7.40;99.90;;;;;;4947423;29;20204;-96
2020/12/26 11:56:53;;;;;;;1.27;0.70;;;7.50;99.90;;;;;;4947584;29;20230;-95
2020/12/26 11:59:25;;;;;;;3.23;0.50;;;7.40;99.90;;;;;;4947930;29;20211;-96
2020/12/26 12:01:58;;;;;;;0.67;0.30;;;7.50;99.90;;;;;;4947447;29;20215;-95
2020/12/26 12:04:29;;;;;;;1.33;0.30;;;7.50;99.90;;;;;;4945988;29;20244;-95
2020/12/26 12:07:00;;;;;;;0.97;0.30;;;7.40;99.90;;;;;;4948344;29;20209;-96
2020/12/26 12:09:32;;;;;;;0.60;0.50;;;7.50;99.90;;;;;;4947580;28;20724;-96
2020/12/26 12:12:03;;;;;;;0.93;0.30;;;7.50;99.90;;;;;;4946452;29;20217;-95
2020/12/26 12:14:34;;;;;;;2.50;0.40;;;7.50;99.90;;;;;;4946969;29;20201;-95
2020/12/26 12:17:05;;;;;;;0.40;0.30;;;7.50;99.90;;;;;;4948259;29;20279;-96
2020/12/26 12:19:36;;;;;;;0.23;0.20;;;7.50;99.90;;;;;;4948291;29;20213;-95
2020/12/26 12:22:07;;;;;;;0.97;0.30;;;7.50;99.90;;;;;;4949871;29;20216;-95
2020/12/26 12:24:40;;;;;;;2.00;0.50;;;7.50;99.90;;;;;;4948695;28;20247;-95
2020/12/26 12:27:13;;;;;;;2.33;0.50;;;7.50;99.90;;;;;;4950342;29;20212;-95
2020/12/26 12:29:44;;;;;;;0.27;0.23;;;7.50;99.90;;;;;;4948692;29;20310;-94
2020/12/26 12:32:15;;;;;;;1.30;0.40;;;7.80;99.90;;;;;;4949624;29;20213;-96
2020/12/26 12:34:46;;;;;;;0.73;0.50;;;7.70;99.90;;;;;;4952196;29;20232;-93
2020/12/26 12:37:17;;;;;;;0.70;0.30;;;7.70;99.90;;;;;;4951675;28;20231;-96
2020/12/26 12:39:49;;;;;;;0.60;0.30;;;7.70;99.90;;;;;;4950024;29;20272;-96
2020/12/26 12:42:20;;;;;;;1.10;0.30;;;7.80;99.90;;;;;;4948987;29;20200;-95
2020/12/26 12:44:51;;;;;;;1.97;0.40;;;7.80;99.90;;;;;;4951546;29;20247;-96
2020/12/26 12:47:25;;;;;;;2.33;0.60;;;7.80;99.90;;;;;;4950794;29;20204;-95
2020/12/26 12:49:56;;;;;;;2.50;0.40;;;7.80;99.90;;;;;;4944048;28;20243;-95
2020/12/26 12:52:27;;;;;;;0.53;0.37;;;7.80;99.90;;;;;;4949864;29;20204;-95
2020/12/26 12:54:59;;;;;;;1.73;0.30;;;7.90;99.90;;;;;;4947974;29;20232;-95
2020/12/26 12:57:30;;;;;;;0.47;0.30;;;7.80;99.90;;;;;;4949727;28;20216;-96
2020/12/26 13:00:02;;;;;;;1.73;0.60;;;7.80;99.90;;;;;;4950141;29;20215;-96
2020/12/26 13:02:33;;;;;;;3.70;0.60;;;7.70;99.90;;;;;;4949922;29;20224;-96
2020/12/26 13:05:04;;;;;;;0.57;0.40;;;7.60;99.90;;;;;;4950142;29;20314;-96
2020/12/26 13:07:36;;;;;;;1.47;0.40;;;7.50;99.90;;;;;;4945969;28;20208;-95
2020/12/26 13:10:13;;;;;;;1.63;0.40;;;7.40;99.90;;;;;;4946614;29;20374;-95
2020/12/26 13:12:43;;;;;;;1.07;0.50;;;7.30;99.90;;;;;;4945016;29;20271;-96
2020/12/26 13:15:15;;;;;;;2.50;0.50;;;7.30;99.90;;;;;;4947653;29;20631;-96
2020/12/26 13:17:45;;;;;;;1.70;0.53;;;7.20;99.90;;;;;;4947788;29;20208;-95
2020/12/26 13:20:16;;;;;;;1.37;0.40;;;7.10;99.90;;;;;;4948167;29;20200;-94
2020/12/26 13:22:50;;;;;;;2.83;0.50;;;7.10;99.90;;;;;;4929278;29;20235;-94
2020/12/26 13:25:22;;;;;;;1.20;0.30;;;7.00;99.90;;;;;;4937793;29;20206;-95
2020/12/26 13:27:52;;;;;;;0.43;0.33;;;7.10;99.90;;;;;;4948260;29;20255;-95
2020/12/26 13:30:22;;;;;;;2.50;0.40;;;7.10;99.90;;;;;;4948359;28;20323;-94
2020/12/26 13:32:54;;;;;;;1.27;0.40;;;7.10;99.90;;;;;;4947082;29;20240;-95
2020/12/26 13:35:25;;;;;;;1.87;0.67;;;7.10;99.90;;;;;;4945668;29;20712;-94
2020/12/26 13:37:56;;;;;;;2.30;0.73;;;7.10;99.90;;;;;;4946766;29;20685;-95
2020/12/26 13:40:27;;;;;;;1.20;0.40;;;7.20;99.90;;;;;;4946187;29;20615;-95
2020/12/26 13:42:58;;;;;;;3.23;0.60;;;7.30;99.90;;;;;;4945960;29;20240;-96
2020/12/26 13:45:29;;;;;;;4.23;0.43;;;7.30;99.90;;;;;;4948666;29;20201;-96
2020/12/26 13:48:01;;;;;;;2.93;0.50;;;7.30;99.90;;;;;;4948257;28;21366;-95
2020/12/26 13:50:34;;;;;;;2.93;0.80;;;7.40;99.90;;;;;;4944306;29;20229;-96
2020/12/26 13:53:04;;;;;;;0.67;0.40;;;7.30;99.90;;;;;;4946494;29;20218;-96
2020/12/26 13:55:36;;;;;;;0.83;0.30;;;7.30;99.90;;;;;;4947452;29;20275;-95
2020/12/26 13:58:07;;;;;;;3.00;0.40;;;7.30;99.90;;;;;;4949675;29;20209;-94
2020/12/26 14:00:38;;;;;;;2.43;0.80;;;7.30;99.90;;;;;;4946506;29;20247;-95
2020/12/26 14:03:08;;;;;;;1.80;0.40;;;7.30;99.90;;;;;;4945701;28;20303;-94
2020/12/26 14:05:40;;;;;;;2.00;0.50;;;7.30;99.90;;;;;;4947269;29;20204;-95
2020/12/26 14:08:14;;;;;;;2.93;0.70;;;7.30;99.90;;;;;;4949634;28;20276;-96
2020/12/26 14:10:48;;;;;;;3.10;0.70;;;7.30;99.90;;;;;;4946652;29;20663;-96
2020/12/26 14:13:19;;;;;;;2.70;0.33;;;7.30;99.90;;;;;;4947337;29;20208;-95
2020/12/26 14:15:50;;;;;;;3.03;0.40;;;7.40;99.90;;;;;;4947267;29;20212;-96
2020/12/26 14:18:21;;;;;;;2.20;0.50;;;7.50;99.90;;;;;;4945746;29;20205;-95
2020/12/26 14:20:52;;;;;;;1.80;0.50;;;7.40;99.90;;;;;;4946626;29;20709;-95
2020/12/26 14:23:23;;;;;;;2.20;0.40;;;7.50;99.90;;;;;;4946431;29;20671;-95
2020/12/26 14:25:57;;;;;;;3.70;0.80;;;7.40;99.90;;;;;;4949136;29;20220;-95
2020/12/26 14:28:28;;;;;;;1.33;0.67;;;7.50;99.90;;;;;;4949528;28;20207;-96
2020/12/26 14:30:59;;;;;;;1.90;0.63;;;7.60;99.90;;;;;;4946620;29;20208;-96
2020/12/26 14:33:30;;;;;;;3.03;0.53;;;7.50;99.90;;;;;;4948958;29;20236;-96
2020/12/26 14:36:01;;;;;;;1.80;0.47;;;7.50;99.90;;;;;;4946806;29;20205;-96
2020/12/26 14:38:33;;;;;;;2.03;0.80;;;7.50;99.90;;;;;;4947502;29;20212;-95
2020/12/26 14:41:04;;;;;;;2.70;0.80;;;7.60;99.90;;;;;;4948308;29;20227;-93
2020/12/26 14:43:47;;;;;;;1.83;0.50;;;7.60;99.90;;;;;;4948823;29;20306;-96
2020/12/26 14:46:28;;;;;;;1.73;0.60;;;7.60;99.90;;;;;;4949626;29;20733;-96
2020/12/26 14:49:00;;;;;;;2.90;0.90;;;7.60;99.90;;;;;;4948429;29;20238;-96
2020/12/26 14:51:31;;;;;;;1.83;0.60;;;7.60;99.90;;;;;;4948873;29;20208;-93
2020/12/26 14:54:02;;;;;;;2.60;0.60;;;7.60;99.90;;;;;;4945068;29;20204;-95
2020/12/26 14:56:34;;;;;;;3.77;0.80;;;7.60;99.90;;;;;;4948115;28;20670;-95
2020/12/26 14:59:05;;;;;;;1.97;0.43;;;7.70;99.90;;;;;;4947463;29;20263;-96
2020/12/26 15:01:38;;;;;;;3.50;0.80;;;7.70;99.90;;;;;;4941897;29;20205;-95
2020/12/26 15:04:09;;;;;;;3.00;0.60;;;7.60;99.90;;;;;;4947491;29;20242;-95
2020/12/26 15:06:40;;;;;;;3.10;0.80;;;7.50;99.90;;;;;;4947814;29;20263;-95
2020/12/26 15:09:11;;;;;;;5.23;1.00;;;7.50;99.90;;;;;;4947479;29;20228;-95
2020/12/26 15:11:44;;;;;;;3.17;1.00;;;7.50;99.90;;;;;;4946719;29;20216;-96